KGLD

Renner Field / Goodland Municipal / Airport

Goodland, Kansas, USA
METAR KGLD 230153Z AUTO 17012KT 10SM CLR 22/11 A2990 RMK AO2 SLP088 T02170106
Observed Flight Rules
May-23 @ 01:53 UTC (60 minutes ago) Visual Flight Rules
Wind Visibility Clouds
170° at 12 knots 10 miles
  • Clear skies
Temperatures Readings
Current 22°C / 72°F
Dewpoint 11°C / 52°F
Humidity 50%
Altimeter 29.9" Hg
Pressure 1008.8 hPa
Elevation 1113
METAR KGLD 230153Z AUTO 17012KT 10SM CLR 22/11 A2990 RMK AO2 SLP088 T02170106
Observed Flight Rules
May-23 @ 01:53 UTC
(60 minutes ago)
VFR
Wind Visibility
170° at 12 knots 10 miles
Clouds
  • Clear skies
Temperature Dewpoint
22°C / 72°F 11°C / 52°F
Humidity Altimeter Pressure
50% 29.9" Hg 1008.8 hPa